sensor_id;sensor_type;location;lat;lon;timestamp;P1;durP1;ratioP1;P2;durP2;ratioP2
10537;SDS011;5317;49.048;8.468;2023-04-21T00:02:10;13.20;;;10.87;;
10537;SDS011;5317;49.048;8.468;2023-04-21T00:04:39;13.00;;;11.60;;
10537;SDS011;5317;49.048;8.468;2023-04-21T00:07:09;11.77;;;10.50;;
10537;SDS011;5317;49.048;8.468;2023-04-21T00:09:38;12.00;;;10.70;;
10537;SDS011;5317;49.048;8.468;2023-04-21T00:12:06;12.17;;;10.87;;
10537;SDS011;5317;49.048;8.468;2023-04-21T00:14:33;12.03;;;10.40;;
10537;SDS011;5317;49.048;8.468;2023-04-21T00:17:00;13.27;;;10.57;;
10537;SDS011;5317;49.048;8.468;2023-04-21T00:19:27;12.60;;;11.27;;
10537;SDS011;5317;49.048;8.468;2023-04-21T00:21:54;12.43;;;11.07;;
10537;SDS011;5317;49.048;8.468;2023-04-21T00:24:22;12.63;;;11.30;;
10537;SDS011;5317;49.048;8.468;2023-04-21T00:26:50;13.57;;;11.83;;
10537;SDS011;5317;49.048;8.468;2023-04-21T00:29:19;13.17;;;10.83;;
10537;SDS011;5317;49.048;8.468;2023-04-21T00:31:46;13.43;;;11.77;;
10537;SDS011;5317;49.048;8.468;2023-04-21T00:34:12;14.53;;;12.30;;
10537;SDS011;5317;49.048;8.468;2023-04-21T00:36:39;14.27;;;12.77;;
10537;SDS011;5317;49.048;8.468;2023-04-21T00:39:09;14.53;;;12.93;;
10537;SDS011;5317;49.048;8.468;2023-04-21T00:41:36;15.20;;;13.60;;
10537;SDS011;5317;49.048;8.468;2023-04-21T00:44:04;15.73;;;13.63;;
10537;SDS011;5317;49.048;8.468;2023-04-21T00:46:35;18.53;;;14.97;;
10537;SDS011;5317;49.048;8.468;2023-04-21T00:49:03;18.77;;;15.80;;
10537;SDS011;5317;49.048;8.468;2023-04-21T00:51:32;19.27;;;15.50;;
10537;SDS011;5317;49.048;8.468;2023-04-21T00:54:00;18.97;;;15.83;;
10537;SDS011;5317;49.048;8.468;2023-04-21T00:56:29;17.57;;;15.60;;
10537;SDS011;5317;49.048;8.468;2023-04-21T00:58:57;18.83;;;16.77;;
10537;SDS011;5317;49.048;8.468;2023-04-21T01:01:26;18.67;;;16.20;;
10537;SDS011;5317;49.048;8.468;2023-04-21T01:03:55;18.90;;;16.37;;
10537;SDS011;5317;49.048;8.468;2023-04-21T01:06:23;18.60;;;16.60;;
10537;SDS011;5317;49.048;8.468;2023-04-21T01:08:50;19.67;;;16.47;;
10537;SDS011;5317;49.048;8.468;2023-04-21T01:11:18;18.60;;;16.23;;
10537;SDS011;5317;49.048;8.468;2023-04-21T01:13:45;20.60;;;17.23;;
10537;SDS011;5317;49.048;8.468;2023-04-21T01:16:17;19.17;;;17.17;;
10537;SDS011;5317;49.048;8.468;2023-04-21T01:18:44;19.13;;;16.90;;
10537;SDS011;5317;49.048;8.468;2023-04-21T01:21:12;19.40;;;17.40;;
10537;SDS011;5317;49.048;8.468;2023-04-21T01:23:42;19.03;;;16.90;;
10537;SDS011;5317;49.048;8.468;2023-04-21T01:26:09;18.50;;;16.47;;
10537;SDS011;5317;49.048;8.468;2023-04-21T01:28:35;19.83;;;17.50;;
10537;SDS011;5317;49.048;8.468;2023-04-21T01:31:03;19.60;;;17.10;;
10537;SDS011;5317;49.048;8.468;2023-04-21T01:33:30;20.73;;;17.77;;
10537;SDS011;5317;49.048;8.468;2023-04-21T01:35:57;18.60;;;16.47;;
10537;SDS011;5317;49.048;8.468;2023-04-21T01:38:25;19.27;;;16.90;;
10537;SDS011;5317;49.048;8.468;2023-04-21T01:40:53;17.33;;;15.13;;
10537;SDS011;5317;49.048;8.468;2023-04-21T01:43:21;19.40;;;16.97;;
10537;SDS011;5317;49.048;8.468;2023-04-21T01:45:49;18.33;;;15.83;;
10537;SDS011;5317;49.048;8.468;2023-04-21T01:48:17;18.50;;;16.50;;
10537;SDS011;5317;49.048;8.468;2023-04-21T01:50:44;19.43;;;17.03;;
10537;SDS011;5317;49.048;8.468;2023-04-21T01:53:11;20.00;;;16.73;;
10537;SDS011;5317;49.048;8.468;2023-04-21T01:55:37;19.47;;;16.50;;
10537;SDS011;5317;49.048;8.468;2023-04-21T01:58:06;20.40;;;16.77;;
10537;SDS011;5317;49.048;8.468;2023-04-21T02:00:33;18.60;;;15.87;;
10537;SDS011;5317;49.048;8.468;2023-04-21T02:03:03;19.47;;;16.40;;
10537;SDS011;5317;49.048;8.468;2023-04-21T02:05:30;19.03;;;15.40;;
10537;SDS011;5317;49.048;8.468;2023-04-21T02:07:57;19.03;;;16.00;;
10537;SDS011;5317;49.048;8.468;2023-04-21T02:10:24;20.30;;;16.17;;
10537;SDS011;5317;49.048;8.468;2023-04-21T02:12:50;18.67;;;16.00;;
10537;SDS011;5317;49.048;8.468;2023-04-21T02:15:19;18.20;;;15.73;;
10537;SDS011;5317;49.048;8.468;2023-04-21T02:17:47;17.47;;;15.07;;
10537;SDS011;5317;49.048;8.468;2023-04-21T02:20:14;18.23;;;16.23;;
10537;SDS011;5317;49.048;8.468;2023-04-21T02:22:41;19.40;;;16.40;;
10537;SDS011;5317;49.048;8.468;2023-04-21T02:25:08;18.33;;;15.53;;
10537;SDS011;5317;49.048;8.468;2023-04-21T02:27:35;18.43;;;15.40;;
10537;SDS011;5317;49.048;8.468;2023-04-21T02:30:02;19.77;;;16.17;;
10537;SDS011;5317;49.048;8.468;2023-04-21T02:32:30;16.67;;;13.77;;
10537;SDS011;5317;49.048;8.468;2023-04-21T02:34:57;16.93;;;14.87;;
10537;SDS011;5317;49.048;8.468;2023-04-21T02:37:24;17.63;;;14.70;;
10537;SDS011;5317;49.048;8.468;2023-04-21T02:39:51;17.47;;;15.30;;
10537;SDS011;5317;49.048;8.468;2023-04-21T02:42:18;16.07;;;14.37;;
10537;SDS011;5317;49.048;8.468;2023-04-21T02:44:45;17.77;;;15.17;;
10537;SDS011;5317;49.048;8.468;2023-04-21T02:47:13;18.17;;;15.37;;
10537;SDS011;5317;49.048;8.468;2023-04-21T02:49:42;17.07;;;14.53;;
10537;SDS011;5317;49.048;8.468;2023-04-21T02:52:09;15.53;;;13.80;;
10537;SDS011;5317;49.048;8.468;2023-04-21T02:54:36;16.23;;;14.33;;
10537;SDS011;5317;49.048;8.468;2023-04-21T02:57:03;17.07;;;14.73;;
10537;SDS011;5317;49.048;8.468;2023-04-21T02:59:30;17.77;;;15.33;;
10537;SDS011;5317;49.048;8.468;2023-04-21T03:01:57;18.93;;;15.30;;
10537;SDS011;5317;49.048;8.468;2023-04-21T03:04:23;18.87;;;16.03;;
10537;SDS011;5317;49.048;8.468;2023-04-21T03:06:52;18.07;;;15.07;;
10537;SDS011;5317;49.048;8.468;2023-04-21T03:09:19;17.77;;;15.87;;
10537;SDS011;5317;49.048;8.468;2023-04-21T03:11:46;18.30;;;15.53;;
10537;SDS011;5317;49.048;8.468;2023-04-21T03:14:13;17.90;;;15.63;;
10537;SDS011;5317;49.048;8.468;2023-04-21T03:16:39;17.90;;;14.87;;
10537;SDS011;5317;49.048;8.468;2023-04-21T03:19:06;19.43;;;16.00;;
10537;SDS011;5317;49.048;8.468;2023-04-21T03:21:35;18.50;;;15.03;;
10537;SDS011;5317;49.048;8.468;2023-04-21T03:24:04;17.57;;;15.20;;
10537;SDS011;5317;49.048;8.468;2023-04-21T03:26:34;16.90;;;14.97;;
10537;SDS011;5317;49.048;8.468;2023-04-21T03:29:01;18.13;;;15.23;;
10537;SDS011;5317;49.048;8.468;2023-04-21T03:31:28;19.13;;;15.20;;
10537;SDS011;5317;49.048;8.468;2023-04-21T03:33:55;19.07;;;15.53;;
10537;SDS011;5317;49.048;8.468;2023-04-21T03:36:22;18.20;;;16.03;;
10537;SDS011;5317;49.048;8.468;2023-04-21T03:38:49;19.30;;;15.47;;
10537;SDS011;5317;49.048;8.468;2023-04-21T03:41:17;17.87;;;15.57;;
10537;SDS011;5317;49.048;8.468;2023-04-21T03:43:44;20.73;;;15.80;;
10537;SDS011;5317;49.048;8.468;2023-04-21T03:46:17;18.37;;;16.13;;
10537;SDS011;5317;49.048;8.468;2023-04-21T03:48:44;22.43;;;15.37;;
10537;SDS011;5317;49.048;8.468;2023-04-21T03:51:12;18.00;;;15.33;;
10537;SDS011;5317;49.048;8.468;2023-04-21T03:53:39;18.07;;;14.57;;
10537;SDS011;5317;49.048;8.468;2023-04-21T03:56:12;15.90;;;14.10;;
10537;SDS011;5317;49.048;8.468;2023-04-21T03:58:40;18.83;;;15.00;;
10537;SDS011;5317;49.048;8.468;2023-04-21T04:01:08;18.70;;;14.57;;
10537;SDS011;5317;49.048;8.468;2023-04-21T04:03:35;17.33;;;14.57;;
10537;SDS011;5317;49.048;8.468;2023-04-21T04:06:04;17.57;;;14.67;;
10537;SDS011;5317;49.048;8.468;2023-04-21T04:08:32;16.90;;;15.13;;
10537;SDS011;5317;49.048;8.468;2023-04-21T04:10:58;20.30;;;15.53;;
10537;SDS011;5317;49.048;8.468;2023-04-21T04:13:25;17.53;;;14.80;;
10537;SDS011;5317;49.048;8.468;2023-04-21T04:15:57;18.77;;;15.70;;
10537;SDS011;5317;49.048;8.468;2023-04-21T04:18:24;16.03;;;14.17;;
10537;SDS011;5317;49.048;8.468;2023-04-21T04:20:51;17.03;;;14.10;;
10537;SDS011;5317;49.048;8.468;2023-04-21T04:23:17;19.53;;;13.10;;
10537;SDS011;5317;49.048;8.468;2023-04-21T04:25:44;17.07;;;14.33;;
10537;SDS011;5317;49.048;8.468;2023-04-21T04:28:12;18.00;;;14.73;;
10537;SDS011;5317;49.048;8.468;2023-04-21T04:30:39;18.10;;;13.90;;
10537;SDS011;5317;49.048;8.468;2023-04-21T04:33:08;17.80;;;14.83;;
10537;SDS011;5317;49.048;8.468;2023-04-21T04:35:35;17.10;;;15.03;;
10537;SDS011;5317;49.048;8.468;2023-04-21T04:38:02;18.70;;;16.57;;
10537;SDS011;5317;49.048;8.468;2023-04-21T04:40:31;17.63;;;14.50;;
10537;SDS011;5317;49.048;8.468;2023-04-21T04:42:58;16.07;;;13.90;;
10537;SDS011;5317;49.048;8.468;2023-04-21T04:45:26;16.63;;;13.67;;
10537;SDS011;5317;49.048;8.468;2023-04-21T04:47:56;18.33;;;14.77;;
10537;SDS011;5317;49.048;8.468;2023-04-21T04:50:25;16.03;;;14.20;;
10537;SDS011;5317;49.048;8.468;2023-04-21T04:52:52;17.67;;;14.03;;
10537;SDS011;5317;49.048;8.468;2023-04-21T04:55:20;16.13;;;13.13;;
10537;SDS011;5317;49.048;8.468;2023-04-21T04:57:47;15.17;;;12.63;;
10537;SDS011;5317;49.048;8.468;2023-04-21T05:00:14;14.80;;;12.27;;
10537;SDS011;5317;49.048;8.468;2023-04-21T05:02:41;16.27;;;12.70;;
10537;SDS011;5317;49.048;8.468;2023-04-21T05:05:08;15.73;;;13.20;;
10537;SDS011;5317;49.048;8.468;2023-04-21T05:07:36;16.07;;;12.93;;
10537;SDS011;5317;49.048;8.468;2023-04-21T05:10:03;16.50;;;13.10;;
10537;SDS011;5317;49.048;8.468;2023-04-21T05:12:30;16.50;;;13.03;;
10537;SDS011;5317;49.048;8.468;2023-04-21T05:14:57;16.97;;;13.53;;
10537;SDS011;5317;49.048;8.468;2023-04-21T05:17:24;17.57;;;13.80;;
10537;SDS011;5317;49.048;8.468;2023-04-21T05:19:52;18.17;;;14.43;;
10537;SDS011;5317;49.048;8.468;2023-04-21T05:22:19;16.80;;;14.63;;
10537;SDS011;5317;49.048;8.468;2023-04-21T05:24:47;19.10;;;15.00;;
10537;SDS011;5317;49.048;8.468;2023-04-21T05:27:14;17.60;;;14.17;;
10537;SDS011;5317;49.048;8.468;2023-04-21T05:29:41;17.00;;;13.17;;
10537;SDS011;5317;49.048;8.468;2023-04-21T05:32:08;15.17;;;13.53;;
10537;SDS011;5317;49.048;8.468;2023-04-21T05:34:36;16.90;;;13.97;;
10537;SDS011;5317;49.048;8.468;2023-04-21T05:37:03;16.20;;;13.87;;
10537;SDS011;5317;49.048;8.468;2023-04-21T05:39:30;15.07;;;13.10;;
10537;SDS011;5317;49.048;8.468;2023-04-21T05:41:58;16.87;;;13.30;;
10537;SDS011;5317;49.048;8.468;2023-04-21T05:44:26;14.87;;;12.60;;
10537;SDS011;5317;49.048;8.468;2023-04-21T05:46:53;14.13;;;12.37;;
10537;SDS011;5317;49.048;8.468;2023-04-21T05:49:20;13.67;;;12.10;;
10537;SDS011;5317;49.048;8.468;2023-04-21T05:51:51;13.43;;;11.57;;
10537;SDS011;5317;49.048;8.468;2023-04-21T05:54:21;14.60;;;11.93;;
10537;SDS011;5317;49.048;8.468;2023-04-21T05:56:47;15.63;;;12.93;;
10537;SDS011;5317;49.048;8.468;2023-04-21T05:59:16;14.93;;;13.40;;
10537;SDS011;5317;49.048;8.468;2023-04-21T06:01:43;15.63;;;12.57;;
10537;SDS011;5317;49.048;8.468;2023-04-21T06:04:09;13.70;;;11.73;;
10537;SDS011;5317;49.048;8.468;2023-04-21T06:06:39;14.93;;;12.83;;
10537;SDS011;5317;49.048;8.468;2023-04-21T06:09:09;16.30;;;13.73;;
10537;SDS011;5317;49.048;8.468;2023-04-21T06:11:39;14.60;;;12.70;;
10537;SDS011;5317;49.048;8.468;2023-04-21T06:14:09;16.23;;;13.27;;
10537;SDS011;5317;49.048;8.468;2023-04-21T06:16:40;16.90;;;13.77;;
10537;SDS011;5317;49.048;8.468;2023-04-21T06:19:07;15.70;;;13.47;;
10537;SDS011;5317;49.048;8.468;2023-04-21T06:21:36;15.53;;;13.67;;
10537;SDS011;5317;49.048;8.468;2023-04-21T06:24:06;15.07;;;13.27;;
10537;SDS011;5317;49.048;8.468;2023-04-21T06:26:34;15.70;;;13.93;;
10537;SDS011;5317;49.048;8.468;2023-04-21T06:29:01;14.53;;;12.80;;
10537;SDS011;5317;49.048;8.468;2023-04-21T06:31:27;16.00;;;14.30;;
10537;SDS011;5317;49.048;8.468;2023-04-21T06:33:56;16.10;;;13.77;;
10537;SDS011;5317;49.048;8.468;2023-04-21T06:36:24;15.60;;;13.83;;
10537;SDS011;5317;49.048;8.468;2023-04-21T06:38:51;15.10;;;12.90;;
10537;SDS011;5317;49.048;8.468;2023-04-21T06:41:18;14.63;;;13.03;;
10537;SDS011;5317;49.048;8.468;2023-04-21T06:43:45;13.43;;;12.03;;
10537;SDS011;5317;49.048;8.468;2023-04-21T06:46:12;13.10;;;11.70;;
10537;SDS011;5317;49.048;8.468;2023-04-21T06:48:39;11.47;;;10.37;;
10537;SDS011;5317;49.048;8.468;2023-04-21T06:51:07;11.27;;;9.93;;
10537;SDS011;5317;49.048;8.468;2023-04-21T06:53:34;12.50;;;10.50;;
10537;SDS011;5317;49.048;8.468;2023-04-21T06:56:02;10.97;;;9.23;;
10537;SDS011;5317;49.048;8.468;2023-04-21T06:58:29;10.03;;;9.03;;
10537;SDS011;5317;49.048;8.468;2023-04-21T07:00:56;10.90;;;9.57;;
10537;SDS011;5317;49.048;8.468;2023-04-21T07:03:25;11.87;;;9.80;;
10537;SDS011;5317;49.048;8.468;2023-04-21T07:05:52;9.93;;;8.93;;
10537;SDS011;5317;49.048;8.468;2023-04-21T07:08:24;10.57;;;9.03;;
10537;SDS011;5317;49.048;8.468;2023-04-21T07:10:51;11.00;;;9.40;;
10537;SDS011;5317;49.048;8.468;2023-04-21T07:13:18;10.23;;;8.97;;
10537;SDS011;5317;49.048;8.468;2023-04-21T07:15:49;10.03;;;8.93;;
10537;SDS011;5317;49.048;8.468;2023-04-21T07:18:18;9.20;;;8.20;;
10537;SDS011;5317;49.048;8.468;2023-04-21T07:20:47;9.80;;;8.60;;
10537;SDS011;5317;49.048;8.468;2023-04-21T07:23:17;9.73;;;8.47;;
10537;SDS011;5317;49.048;8.468;2023-04-21T07:25:46;9.43;;;8.43;;
10537;SDS011;5317;49.048;8.468;2023-04-21T07:28:13;10.33;;;8.93;;
10537;SDS011;5317;49.048;8.468;2023-04-21T07:30:43;11.53;;;9.07;;
10537;SDS011;5317;49.048;8.468;2023-04-21T07:33:12;9.30;;;8.40;;
10537;SDS011;5317;49.048;8.468;2023-04-21T07:35:42;10.13;;;8.73;;
10537;SDS011;5317;49.048;8.468;2023-04-21T07:38:13;9.50;;;8.50;;
10537;SDS011;5317;49.048;8.468;2023-04-21T07:40:40;11.00;;;9.87;;
10537;SDS011;5317;49.048;8.468;2023-04-21T07:43:11;10.43;;;9.33;;
10537;SDS011;5317;49.048;8.468;2023-04-21T07:45:38;9.83;;;8.50;;
10537;SDS011;5317;49.048;8.468;2023-04-21T07:48:07;10.60;;;9.50;;
10537;SDS011;5317;49.048;8.468;2023-04-21T07:50:37;9.90;;;8.90;;
10537;SDS011;5317;49.048;8.468;2023-04-21T07:53:06;10.00;;;9.00;;
10537;SDS011;5317;49.048;8.468;2023-04-21T07:55:33;10.17;;;9.07;;
10537;SDS011;5317;49.048;8.468;2023-04-21T07:58:01;9.47;;;8.27;;
10537;SDS011;5317;49.048;8.468;2023-04-21T08:00:29;8.67;;;7.77;;
10537;SDS011;5317;49.048;8.468;2023-04-21T08:02:58;8.63;;;7.60;;
10537;SDS011;5317;49.048;8.468;2023-04-21T08:05:25;8.63;;;7.77;;
10537;SDS011;5317;49.048;8.468;2023-04-21T08:07:53;7.67;;;6.93;;
10537;SDS011;5317;49.048;8.468;2023-04-21T08:10:21;8.10;;;7.17;;
10537;SDS011;5317;49.048;8.468;2023-04-21T08:12:48;8.23;;;6.83;;
10537;SDS011;5317;49.048;8.468;2023-04-21T08:15:16;8.57;;;7.10;;
10537;SDS011;5317;49.048;8.468;2023-04-21T08:17:44;6.80;;;6.10;;
10537;SDS011;5317;49.048;8.468;2023-04-21T08:20:11;7.23;;;6.27;;
10537;SDS011;5317;49.048;8.468;2023-04-21T08:22:38;6.10;;;5.50;;
10537;SDS011;5317;49.048;8.468;2023-04-21T08:25:06;6.60;;;6.00;;
10537;SDS011;5317;49.048;8.468;2023-04-21T08:27:33;7.03;;;6.00;;
10537;SDS011;5317;49.048;8.468;2023-04-21T08:30:02;6.93;;;6.23;;
10537;SDS011;5317;49.048;8.468;2023-04-21T08:32:30;7.20;;;6.37;;
10537;SDS011;5317;49.048;8.468;2023-04-21T08:34:58;7.83;;;6.40;;
10537;SDS011;5317;49.048;8.468;2023-04-21T08:37:25;6.57;;;5.70;;
10537;SDS011;5317;49.048;8.468;2023-04-21T08:39:53;5.60;;;4.67;;
10537;SDS011;5317;49.048;8.468;2023-04-21T08:42:20;4.83;;;4.43;;
10537;SDS011;5317;49.048;8.468;2023-04-21T08:44:47;6.00;;;4.90;;
10537;SDS011;5317;49.048;8.468;2023-04-21T08:47:14;5.33;;;4.83;;
10537;SDS011;5317;49.048;8.468;2023-04-21T08:49:41;5.63;;;5.13;;
10537;SDS011;5317;49.048;8.468;2023-04-21T08:52:11;5.57;;;5.03;;
10537;SDS011;5317;49.048;8.468;2023-04-21T08:54:41;5.83;;;5.23;;
10537;SDS011;5317;49.048;8.468;2023-04-21T08:57:08;9.07;;;6.43;;
10537;SDS011;5317;49.048;8.468;2023-04-21T08:59:43;6.77;;;6.03;;
10537;SDS011;5317;49.048;8.468;2023-04-21T09:02:14;7.53;;;6.73;;
10537;SDS011;5317;49.048;8.468;2023-04-21T09:04:45;6.97;;;6.27;;
10537;SDS011;5317;49.048;8.468;2023-04-21T09:07:30;6.67;;;6.00;;
10537;SDS011;5317;49.048;8.468;2023-04-21T09:10:07;7.83;;;6.20;;
10537;SDS011;5317;49.048;8.468;2023-04-21T09:12:34;6.10;;;5.40;;
10537;SDS011;5317;49.048;8.468;2023-04-21T09:15:07;5.77;;;5.27;;
10537;SDS011;5317;49.048;8.468;2023-04-21T09:17:38;5.77;;;5.17;;
10537;SDS011;5317;49.048;8.468;2023-04-21T09:20:13;6.67;;;5.90;;
10537;SDS011;5317;49.048;8.468;2023-04-21T09:22:42;7.77;;;5.43;;
10537;SDS011;5317;49.048;8.468;2023-04-21T09:25:15;6.17;;;5.10;;
10537;SDS011;5317;49.048;8.468;2023-04-21T09:27:44;6.20;;;5.60;;
10537;SDS011;5317;49.048;8.468;2023-04-21T09:30:12;6.63;;;5.97;;
10537;SDS011;5317;49.048;8.468;2023-04-21T09:32:43;6.80;;;5.43;;
10537;SDS011;5317;49.048;8.468;2023-04-21T09:35:14;5.80;;;5.10;;
10537;SDS011;5317;49.048;8.468;2023-04-21T09:37:48;5.47;;;4.77;;
10537;SDS011;5317;49.048;8.468;2023-04-21T09:40:17;5.50;;;5.00;;
10537;SDS011;5317;49.048;8.468;2023-04-21T09:42:47;5.67;;;4.90;;
10537;SDS011;5317;49.048;8.468;2023-04-21T09:45:14;5.40;;;4.90;;
10537;SDS011;5317;49.048;8.468;2023-04-21T09:47:41;4.80;;;4.03;;
10537;SDS011;5317;49.048;8.468;2023-04-21T09:50:10;4.43;;;3.90;;
10537;SDS011;5317;49.048;8.468;2023-04-21T09:52:38;4.53;;;4.13;;
10537;SDS011;5317;49.048;8.468;2023-04-21T09:55:11;4.20;;;3.80;;
10537;SDS011;5317;49.048;8.468;2023-04-21T09:57:40;4.27;;;3.87;;
10537;SDS011;5317;49.048;8.468;2023-04-21T10:00:13;5.33;;;4.27;;
10537;SDS011;5317;49.048;8.468;2023-04-21T10:02:42;5.20;;;3.73;;
10537;SDS011;5317;49.048;8.468;2023-04-21T10:05:12;4.73;;;3.17;;
10537;SDS011;5317;49.048;8.468;2023-04-21T10:07:42;4.07;;;3.23;;
10537;SDS011;5317;49.048;8.468;2023-04-21T10:10:15;3.40;;;3.03;;
10537;SDS011;5317;49.048;8.468;2023-04-21T10:12:45;3.20;;;2.90;;
10537;SDS011;5317;49.048;8.468;2023-04-21T10:15:32;3.40;;;3.07;;
10537;SDS011;5317;49.048;8.468;2023-04-21T10:18:15;3.43;;;2.97;;
10537;SDS011;5317;49.048;8.468;2023-04-21T10:20:53;3.40;;;3.10;;
10537;SDS011;5317;49.048;8.468;2023-04-21T10:23:24;4.17;;;3.10;;
10537;SDS011;5317;49.048;8.468;2023-04-21T10:26:04;3.50;;;3.20;;
10537;SDS011;5317;49.048;8.468;2023-04-21T10:28:43;3.20;;;2.90;;
10537;SDS011;5317;49.048;8.468;2023-04-21T10:31:15;3.20;;;2.90;;
10537;SDS011;5317;49.048;8.468;2023-04-21T10:36:42;4.03;;;3.13;;
10537;SDS011;5317;49.048;8.468;2023-04-21T10:39:28;3.43;;;3.10;;
10537;SDS011;5317;49.048;8.468;2023-04-21T10:44:59;3.40;;;3.10;;
10537;SDS011;5317;49.048;8.468;2023-04-21T10:47:41;3.80;;;3.40;;
10537;SDS011;5317;49.048;8.468;2023-04-21T10:53:06;3.20;;;2.90;;
10537;SDS011;5317;49.048;8.468;2023-04-21T10:55:37;4.07;;;3.40;;
10537;SDS011;5317;49.048;8.468;2023-04-21T10:58:07;4.00;;;3.60;;
10537;SDS011;5317;49.048;8.468;2023-04-21T11:00:35;4.20;;;3.80;;
10537;SDS011;5317;49.048;8.468;2023-04-21T11:03:04;4.53;;;4.13;;
10537;SDS011;5317;49.048;8.468;2023-04-21T11:05:35;4.77;;;4.27;;
10537;SDS011;5317;49.048;8.468;2023-04-21T11:08:09;5.33;;;4.83;;
10537;SDS011;5317;49.048;8.468;2023-04-21T11:10:45;5.00;;;4.50;;
10537;SDS011;5317;49.048;8.468;2023-04-21T11:13:20;5.20;;;4.70;;
10537;SDS011;5317;49.048;8.468;2023-04-21T11:15:54;5.20;;;4.70;;
10537;SDS011;5317;49.048;8.468;2023-04-21T11:18:30;4.70;;;4.30;;
10537;SDS011;5317;49.048;8.468;2023-04-21T11:21:05;5.73;;;5.13;;
10537;SDS011;5317;49.048;8.468;2023-04-21T11:23:33;5.00;;;4.57;;
10537;SDS011;5317;49.048;8.468;2023-04-21T11:26:05;4.93;;;4.50;;
10537;SDS011;5317;49.048;8.468;2023-04-21T11:28:37;4.93;;;4.53;;
10537;SDS011;5317;49.048;8.468;2023-04-21T11:31:05;4.87;;;4.47;;
10537;SDS011;5317;49.048;8.468;2023-04-21T11:33:34;5.30;;;4.80;;
10537;SDS011;5317;49.048;8.468;2023-04-21T11:36:02;4.57;;;4.17;;
10537;SDS011;5317;49.048;8.468;2023-04-21T11:38:35;4.37;;;3.97;;
10537;SDS011;5317;49.048;8.468;2023-04-21T11:41:03;4.63;;;4.23;;
10537;SDS011;5317;49.048;8.468;2023-04-21T11:43:30;4.93;;;4.23;;
10537;SDS011;5317;49.048;8.468;2023-04-21T11:46:11;5.30;;;4.80;;
10537;SDS011;5317;49.048;8.468;2023-04-21T11:48:41;4.83;;;4.43;;
10537;SDS011;5317;49.048;8.468;2023-04-21T11:51:14;5.10;;;4.60;;
10537;SDS011;5317;49.048;8.468;2023-04-21T11:53:42;4.33;;;3.93;;
10537;SDS011;5317;49.048;8.468;2023-04-21T11:56:15;5.63;;;5.13;;
10537;SDS011;5317;49.048;8.468;2023-04-21T11:58:46;5.27;;;4.63;;
10537;SDS011;5317;49.048;8.468;2023-04-21T12:01:18;4.67;;;4.27;;
10537;SDS011;5317;49.048;8.468;2023-04-21T12:03:50;5.33;;;4.73;;
10537;SDS011;5317;49.048;8.468;2023-04-21T12:06:21;5.70;;;5.20;;
10537;SDS011;5317;49.048;8.468;2023-04-21T12:08:56;5.00;;;4.50;;
10537;SDS011;5317;49.048;8.468;2023-04-21T12:11:29;5.37;;;4.87;;
10537;SDS011;5317;49.048;8.468;2023-04-21T12:13:59;5.30;;;4.80;;
10537;SDS011;5317;49.048;8.468;2023-04-21T12:16:28;5.90;;;5.40;;
10537;SDS011;5317;49.048;8.468;2023-04-21T12:19:02;5.53;;;5.03;;
10537;SDS011;5317;49.048;8.468;2023-04-21T12:21:29;4.70;;;4.30;;
10537;SDS011;5317;49.048;8.468;2023-04-21T12:23:56;4.97;;;4.57;;
10537;SDS011;5317;49.048;8.468;2023-04-21T12:26:23;5.80;;;5.30;;
10537;SDS011;5317;49.048;8.468;2023-04-21T12:28:49;6.83;;;5.63;;
10537;SDS011;5317;49.048;8.468;2023-04-21T12:31:16;5.57;;;5.07;;
10537;SDS011;5317;49.048;8.468;2023-04-21T12:33:45;6.40;;;5.80;;
10537;SDS011;5317;49.048;8.468;2023-04-21T12:36:12;5.77;;;5.27;;
10537;SDS011;5317;49.048;8.468;2023-04-21T12:38:39;7.57;;;5.90;;
10537;SDS011;5317;49.048;8.468;2023-04-21T12:41:07;6.60;;;6.00;;
10537;SDS011;5317;49.048;8.468;2023-04-21T12:43:34;6.03;;;5.50;;
10537;SDS011;5317;49.048;8.468;2023-04-21T12:46:00;7.30;;;6.53;;
10537;SDS011;5317;49.048;8.468;2023-04-21T12:48:27;6.33;;;5.73;;
10537;SDS011;5317;49.048;8.468;2023-04-21T12:50:55;6.73;;;6.13;;
10537;SDS011;5317;49.048;8.468;2023-04-21T12:53:23;6.80;;;6.20;;
10537;SDS011;5317;49.048;8.468;2023-04-21T12:55:50;7.20;;;6.50;;
10537;SDS011;5317;49.048;8.468;2023-04-21T12:58:17;7.30;;;6.60;;
10537;SDS011;5317;49.048;8.468;2023-04-21T13:00:44;7.00;;;6.30;;
10537;SDS011;5317;49.048;8.468;2023-04-21T13:03:11;7.13;;;6.47;;
10537;SDS011;5317;49.048;8.468;2023-04-21T13:05:38;8.27;;;7.40;;
10537;SDS011;5317;49.048;8.468;2023-04-21T13:08:06;8.30;;;7.50;;
10537;SDS011;5317;49.048;8.468;2023-04-21T13:10:33;7.63;;;6.93;;
10537;SDS011;5317;49.048;8.468;2023-04-21T13:13:00;8.47;;;7.03;;
10537;SDS011;5317;49.048;8.468;2023-04-21T13:15:26;9.43;;;7.27;;
10537;SDS011;5317;49.048;8.468;2023-04-21T13:17:53;9.63;;;6.57;;
10537;SDS011;5317;49.048;8.468;2023-04-21T13:20:20;7.47;;;6.77;;
10537;SDS011;5317;49.048;8.468;2023-04-21T13:22:47;7.53;;;6.77;;
10537;SDS011;5317;49.048;8.468;2023-04-21T13:25:16;6.63;;;6.03;;
10537;SDS011;5317;49.048;8.468;2023-04-21T13:27:43;8.07;;;7.27;;
10537;SDS011;5317;49.048;8.468;2023-04-21T13:30:11;6.83;;;6.13;;
10537;SDS011;5317;49.048;8.468;2023-04-21T13:32:40;7.23;;;6.53;;
10537;SDS011;5317;49.048;8.468;2023-04-21T13:35:07;6.70;;;6.10;;
10537;SDS011;5317;49.048;8.468;2023-04-21T13:37:35;6.83;;;6.13;;
10537;SDS011;5317;49.048;8.468;2023-04-21T13:40:02;6.87;;;6.17;;
10537;SDS011;5317;49.048;8.468;2023-04-21T13:42:32;6.47;;;5.87;;
10537;SDS011;5317;49.048;8.468;2023-04-21T13:44:59;5.37;;;4.87;;
10537;SDS011;5317;49.048;8.468;2023-04-21T13:47:27;5.83;;;5.30;;
10537;SDS011;5317;49.048;8.468;2023-04-21T13:49:54;6.20;;;5.60;;
10537;SDS011;5317;49.048;8.468;2023-04-21T13:52:21;6.77;;;5.57;;
10537;SDS011;5317;49.048;8.468;2023-04-21T13:54:49;6.23;;;5.30;;
10537;SDS011;5317;49.048;8.468;2023-04-21T13:57:17;6.77;;;5.27;;
10537;SDS011;5317;49.048;8.468;2023-04-21T13:59:45;6.40;;;5.43;;
10537;SDS011;5317;49.048;8.468;2023-04-21T14:02:12;6.33;;;5.70;;
10537;SDS011;5317;49.048;8.468;2023-04-21T14:04:39;6.80;;;6.20;;
10537;SDS011;5317;49.048;8.468;2023-04-21T14:07:06;6.33;;;4.97;;
10537;SDS011;5317;49.048;8.468;2023-04-21T14:09:33;6.30;;;5.70;;
10537;SDS011;5317;49.048;8.468;2023-04-21T14:12:00;5.50;;;5.00;;
10537;SDS011;5317;49.048;8.468;2023-04-21T14:14:27;6.23;;;5.60;;
10537;SDS011;5317;49.048;8.468;2023-04-21T14:16:55;5.63;;;5.00;;
10537;SDS011;5317;49.048;8.468;2023-04-21T14:19:22;4.80;;;3.90;;
10537;SDS011;5317;49.048;8.468;2023-04-21T14:21:49;5.93;;;5.33;;
10537;SDS011;5317;49.048;8.468;2023-04-21T14:24:16;5.10;;;4.70;;
10537;SDS011;5317;49.048;8.468;2023-04-21T14:26:43;5.40;;;4.90;;
10537;SDS011;5317;49.048;8.468;2023-04-21T14:29:10;5.13;;;4.63;;
10537;SDS011;5317;49.048;8.468;2023-04-21T14:31:37;5.20;;;4.70;;
10537;SDS011;5317;49.048;8.468;2023-04-21T14:34:05;5.07;;;4.67;;
10537;SDS011;5317;49.048;8.468;2023-04-21T14:36:32;4.47;;;4.07;;
10537;SDS011;5317;49.048;8.468;2023-04-21T14:38:59;5.27;;;4.80;;
10537;SDS011;5317;49.048;8.468;2023-04-21T14:41:25;5.13;;;4.63;;
10537;SDS011;5317;49.048;8.468;2023-04-21T14:43:52;5.13;;;4.63;;
10537;SDS011;5317;49.048;8.468;2023-04-21T14:46:21;4.87;;;4.47;;
10537;SDS011;5317;49.048;8.468;2023-04-21T14:48:48;5.17;;;4.50;;
10537;SDS011;5317;49.048;8.468;2023-04-21T14:51:17;4.50;;;4.10;;
10537;SDS011;5317;49.048;8.468;2023-04-21T14:53:44;4.33;;;3.93;;
10537;SDS011;5317;49.048;8.468;2023-04-21T14:56:11;5.10;;;4.70;;
10537;SDS011;5317;49.048;8.468;2023-04-21T14:58:38;4.53;;;4.13;;
10537;SDS011;5317;49.048;8.468;2023-04-21T15:01:04;4.27;;;3.70;;
10537;SDS011;5317;49.048;8.468;2023-04-21T15:03:31;4.17;;;3.80;;
10537;SDS011;5317;49.048;8.468;2023-04-21T15:05:58;4.43;;;3.53;;